sensor_id;sensor_type;location;lat;lon;timestamp;temperature;humidity
20081;DHT22;10200;49.232;9.222;2023-09-08T00:02:18;19.40;98.10
20081;DHT22;10200;49.232;9.222;2023-09-08T00:04:44;19.00;98.20
20081;DHT22;10200;49.232;9.222;2023-09-08T00:07:09;19.00;97.90
20081;DHT22;10200;49.232;9.222;2023-09-08T00:09:35;19.00;97.90
20081;DHT22;10200;49.232;9.222;2023-09-08T00:12:00;19.00;98.40
20081;DHT22;10200;49.232;9.222;2023-09-08T00:14:26;19.00;98.20
20081;DHT22;10200;49.232;9.222;2023-09-08T00:16:52;19.00;98.20
20081;DHT22;10200;49.232;9.222;2023-09-08T00:19:21;18.80;98.50
20081;DHT22;10200;49.232;9.222;2023-09-08T00:21:48;18.90;98.10
20081;DHT22;10200;49.232;9.222;2023-09-08T00:24:14;18.90;98.20
20081;DHT22;10200;49.232;9.222;2023-09-08T00:26:40;18.90;98.20
20081;DHT22;10200;49.232;9.222;2023-09-08T00:29:05;18.90;98.30
20081;DHT22;10200;49.232;9.222;2023-09-08T00:31:31;18.90;98.10
20081;DHT22;10200;49.232;9.222;2023-09-08T00:33:57;18.90;98.40
20081;DHT22;10200;49.232;9.222;2023-09-08T00:36:22;18.70;98.20
20081;DHT22;10200;49.232;9.222;2023-09-08T00:38:48;18.70;98.20
20081;DHT22;10200;49.232;9.222;2023-09-08T00:41:13;18.80;98.20
20081;DHT22;10200;49.232;9.222;2023-09-08T00:43:39;18.80;98.50
20081;DHT22;10200;49.232;9.222;2023-09-08T00:46:06;18.80;98.50
20081;DHT22;10200;49.232;9.222;2023-09-08T00:48:31;18.80;98.40
20081;DHT22;10200;49.232;9.222;2023-09-08T00:50:58;18.70;98.60
20081;DHT22;10200;49.232;9.222;2023-09-08T00:53:25;18.60;98.90
20081;DHT22;10200;49.232;9.222;2023-09-08T00:55:51;18.60;98.80
20081;DHT22;10200;49.232;9.222;2023-09-08T00:58:17;18.80;99.20
20081;DHT22;10200;49.232;9.222;2023-09-08T01:00:43;19.00;99.30
20081;DHT22;10200;49.232;9.222;2023-09-08T01:03:11;18.50;99.30
20081;DHT22;10200;49.232;9.222;2023-09-08T01:05:38;18.50;99.50
20081;DHT22;10200;49.232;9.222;2023-09-08T01:08:04;18.40;99.60
20081;DHT22;10200;49.232;9.222;2023-09-08T01:10:31;18.40;99.30
20081;DHT22;10200;49.232;9.222;2023-09-08T01:12:56;18.40;99.60
20081;DHT22;10200;49.232;9.222;2023-09-08T01:15:22;18.30;99.60
20081;DHT22;10200;49.232;9.222;2023-09-08T01:17:47;18.30;99.90
20081;DHT22;10200;49.232;9.222;2023-09-08T01:20:18;18.20;99.90
20081;DHT22;10200;49.232;9.222;2023-09-08T01:25:39;18.10;99.90
20081;DHT22;10200;49.232;9.222;2023-09-08T01:28:06;18.00;99.90
20081;DHT22;10200;49.232;9.222;2023-09-08T01:30:32;18.00;99.90
20081;DHT22;10200;49.232;9.222;2023-09-08T01:32:59;18.00;99.90
20081;DHT22;10200;49.232;9.222;2023-09-08T01:35:25;18.00;99.90
20081;DHT22;10200;49.232;9.222;2023-09-08T01:37:51;17.80;99.90
20081;DHT22;10200;49.232;9.222;2023-09-08T01:40:17;17.80;99.90
20081;DHT22;10200;49.232;9.222;2023-09-08T01:42:45;17.90;99.90
20081;DHT22;10200;49.232;9.222;2023-09-08T01:45:11;17.90;99.90
20081;DHT22;10200;49.232;9.222;2023-09-08T01:47:37;17.90;99.90
20081;DHT22;10200;49.232;9.222;2023-09-08T01:50:03;17.90;99.90
20081;DHT22;10200;49.232;9.222;2023-09-08T01:52:28;17.80;99.90
20081;DHT22;10200;49.232;9.222;2023-09-08T01:54:54;17.80;99.90
20081;DHT22;10200;49.232;9.222;2023-09-08T01:57:21;17.70;99.90
20081;DHT22;10200;49.232;9.222;2023-09-08T01:59:47;17.60;99.90
20081;DHT22;10200;49.232;9.222;2023-09-08T02:02:13;17.60;99.90
20081;DHT22;10200;49.232;9.222;2023-09-08T02:04:39;17.50;99.90
20081;DHT22;10200;49.232;9.222;2023-09-08T02:07:05;17.40;99.90
20081;DHT22;10200;49.232;9.222;2023-09-08T02:09:36;17.30;99.90
20081;DHT22;10200;49.232;9.222;2023-09-08T02:12:02;17.30;99.90
20081;DHT22;10200;49.232;9.222;2023-09-08T02:14:28;17.30;99.90
20081;DHT22;10200;49.232;9.222;2023-09-08T02:16:55;17.20;99.90
20081;DHT22;10200;49.232;9.222;2023-09-08T02:19:21;17.20;99.90
20081;DHT22;10200;49.232;9.222;2023-09-08T02:21:47;17.20;99.90
20081;DHT22;10200;49.232;9.222;2023-09-08T02:24:13;17.20;99.90
20081;DHT22;10200;49.232;9.222;2023-09-08T02:26:39;17.20;99.90
20081;DHT22;10200;49.232;9.222;2023-09-08T02:29:04;17.20;99.90
20081;DHT22;10200;49.232;9.222;2023-09-08T02:31:30;17.10;99.90
20081;DHT22;10200;49.232;9.222;2023-09-08T02:33:56;17.10;99.90
20081;DHT22;10200;49.232;9.222;2023-09-08T02:36:21;17.20;99.90
20081;DHT22;10200;49.232;9.222;2023-09-08T02:38:59;17.10;99.90
20081;DHT22;10200;49.232;9.222;2023-09-08T02:41:25;17.00;99.90
20081;DHT22;10200;49.232;9.222;2023-09-08T02:43:51;17.00;99.90
20081;DHT22;10200;49.232;9.222;2023-09-08T02:46:16;17.00;99.90
20081;DHT22;10200;49.232;9.222;2023-09-08T02:48:42;17.00;99.90
20081;DHT22;10200;49.232;9.222;2023-09-08T02:51:08;17.00;99.90
20081;DHT22;10200;49.232;9.222;2023-09-08T02:53:33;17.10;99.90
20081;DHT22;10200;49.232;9.222;2023-09-08T02:55:59;17.10;99.90
20081;DHT22;10200;49.232;9.222;2023-09-08T02:58:26;17.20;99.90
20081;DHT22;10200;49.232;9.222;2023-09-08T03:00:53;17.40;99.90
20081;DHT22;10200;49.232;9.222;2023-09-08T03:03:19;17.30;99.90
20081;DHT22;10200;49.232;9.222;2023-09-08T03:05:45;17.30;99.90
20081;DHT22;10200;49.232;9.222;2023-09-08T03:08:11;17.20;99.90
20081;DHT22;10200;49.232;9.222;2023-09-08T03:10:37;17.20;99.90
20081;DHT22;10200;49.232;9.222;2023-09-08T03:13:04;17.20;99.90
20081;DHT22;10200;49.232;9.222;2023-09-08T03:15:29;17.20;99.90
20081;DHT22;10200;49.232;9.222;2023-09-08T03:17:56;17.20;99.90
20081;DHT22;10200;49.232;9.222;2023-09-08T03:20:24;17.10;99.90
20081;DHT22;10200;49.232;9.222;2023-09-08T03:22:51;17.10;99.90
20081;DHT22;10200;49.232;9.222;2023-09-08T03:25:17;17.10;99.90
20081;DHT22;10200;49.232;9.222;2023-09-08T03:27:42;17.10;99.90
20081;DHT22;10200;49.232;9.222;2023-09-08T03:30:08;17.10;99.90
20081;DHT22;10200;49.232;9.222;2023-09-08T03:32:35;17.10;99.90
20081;DHT22;10200;49.232;9.222;2023-09-08T03:35:01;17.10;99.90
20081;DHT22;10200;49.232;9.222;2023-09-08T03:37:26;17.20;99.90
20081;DHT22;10200;49.232;9.222;2023-09-08T03:39:52;17.20;99.90
20081;DHT22;10200;49.232;9.222;2023-09-08T03:42:18;17.20;99.90
20081;DHT22;10200;49.232;9.222;2023-09-08T03:44:44;17.20;99.90
20081;DHT22;10200;49.232;9.222;2023-09-08T03:47:09;17.10;99.90
20081;DHT22;10200;49.232;9.222;2023-09-08T03:49:35;17.10;99.90
20081;DHT22;10200;49.232;9.222;2023-09-08T03:52:01;17.10;99.90
20081;DHT22;10200;49.232;9.222;2023-09-08T03:54:26;17.10;99.90
20081;DHT22;10200;49.232;9.222;2023-09-08T03:56:52;17.10;99.90
20081;DHT22;10200;49.232;9.222;2023-09-08T03:59:17;17.10;99.90
20081;DHT22;10200;49.232;9.222;2023-09-08T04:01:43;17.00;99.90
20081;DHT22;10200;49.232;9.222;2023-09-08T04:04:09;17.00;99.90
20081;DHT22;10200;49.232;9.222;2023-09-08T04:06:35;16.90;99.90
20081;DHT22;10200;49.232;9.222;2023-09-08T04:09:00;16.90;99.90
20081;DHT22;10200;49.232;9.222;2023-09-08T04:11:26;16.80;99.90
20081;DHT22;10200;49.232;9.222;2023-09-08T04:13:52;16.80;99.90
20081;DHT22;10200;49.232;9.222;2023-09-08T04:16:18;16.70;99.90
20081;DHT22;10200;49.232;9.222;2023-09-08T04:18:43;16.80;99.90
20081;DHT22;10200;49.232;9.222;2023-09-08T04:21:10;16.70;99.90
20081;DHT22;10200;49.232;9.222;2023-09-08T04:23:35;16.70;99.90
20081;DHT22;10200;49.232;9.222;2023-09-08T04:26:01;16.60;99.90
20081;DHT22;10200;49.232;9.222;2023-09-08T04:28:27;16.60;99.90
20081;DHT22;10200;49.232;9.222;2023-09-08T04:30:53;16.60;99.90
20081;DHT22;10200;49.232;9.222;2023-09-08T04:33:19;16.60;99.90
20081;DHT22;10200;49.232;9.222;2023-09-08T04:35:45;16.60;99.90
20081;DHT22;10200;49.232;9.222;2023-09-08T04:38:10;16.60;99.90
20081;DHT22;10200;49.232;9.222;2023-09-08T04:40:39;16.60;99.90
20081;DHT22;10200;49.232;9.222;2023-09-08T04:43:05;16.60;99.90
20081;DHT22;10200;49.232;9.222;2023-09-08T04:45:30;16.60;99.90
20081;DHT22;10200;49.232;9.222;2023-09-08T04:47:56;16.50;99.90
20081;DHT22;10200;49.232;9.222;2023-09-08T04:50:21;16.50;99.90
20081;DHT22;10200;49.232;9.222;2023-09-08T04:52:47;16.40;99.90
20081;DHT22;10200;49.232;9.222;2023-09-08T04:55:13;16.40;99.90
20081;DHT22;10200;49.232;9.222;2023-09-08T04:57:38;16.30;99.90
20081;DHT22;10200;49.232;9.222;2023-09-08T05:00:04;16.30;99.90
20081;DHT22;10200;49.232;9.222;2023-09-08T05:02:30;16.30;99.90
20081;DHT22;10200;49.232;9.222;2023-09-08T05:04:56;16.30;99.90
20081;DHT22;10200;49.232;9.222;2023-09-08T05:07:21;16.40;99.90
20081;DHT22;10200;49.232;9.222;2023-09-08T05:09:47;16.30;99.90
20081;DHT22;10200;49.232;9.222;2023-09-08T05:12:12;16.30;99.90
20081;DHT22;10200;49.232;9.222;2023-09-08T05:14:38;16.20;99.90
20081;DHT22;10200;49.232;9.222;2023-09-08T05:17:03;16.20;99.90
20081;DHT22;10200;49.232;9.222;2023-09-08T05:19:30;16.30;99.90
20081;DHT22;10200;49.232;9.222;2023-09-08T05:21:57;16.40;99.90
20081;DHT22;10200;49.232;9.222;2023-09-08T05:24:22;16.50;99.90
20081;DHT22;10200;49.232;9.222;2023-09-08T05:26:48;16.80;99.90
20081;DHT22;10200;49.232;9.222;2023-09-08T05:29:13;17.40;99.90
20081;DHT22;10200;49.232;9.222;2023-09-08T05:31:39;18.20;99.90
20081;DHT22;10200;49.232;9.222;2023-09-08T05:34:05;19.20;99.90
20081;DHT22;10200;49.232;9.222;2023-09-08T05:36:31;20.20;99.90
20081;DHT22;10200;49.232;9.222;2023-09-08T05:41:27;22.60;89.40
20081;DHT22;10200;49.232;9.222;2023-09-08T05:43:53;22.80;88.20
20081;DHT22;10200;49.232;9.222;2023-09-08T05:46:19;23.50;82.60
20081;DHT22;10200;49.232;9.222;2023-09-08T05:48:45;24.20;78.20
20081;DHT22;10200;49.232;9.222;2023-09-08T05:51:13;25.00;74.20
20081;DHT22;10200;49.232;9.222;2023-09-08T05:53:39;25.80;70.30
20081;DHT22;10200;49.232;9.222;2023-09-08T05:56:05;26.70;66.90
20081;DHT22;10200;49.232;9.222;2023-09-08T05:58:31;27.50;62.70
20081;DHT22;10200;49.232;9.222;2023-09-08T06:00:57;28.10;59.30
20081;DHT22;10200;49.232;9.222;2023-09-08T06:03:23;28.80;56.80
20081;DHT22;10200;49.232;9.222;2023-09-08T06:05:48;29.30;54.70
20081;DHT22;10200;49.232;9.222;2023-09-08T06:08:14;29.90;54.30
20081;DHT22;10200;49.232;9.222;2023-09-08T06:10:39;30.30;51.70
20081;DHT22;10200;49.232;9.222;2023-09-08T06:13:05;31.20;48.90
20081;DHT22;10200;49.232;9.222;2023-09-08T06:15:30;31.20;48.80
20081;DHT22;10200;49.232;9.222;2023-09-08T06:17:56;31.80;47.10
20081;DHT22;10200;49.232;9.222;2023-09-08T06:20:22;32.00;47.70
20081;DHT22;10200;49.232;9.222;2023-09-08T06:22:47;32.30;46.20
20081;DHT22;10200;49.232;9.222;2023-09-08T06:25:13;32.60;45.60
20081;DHT22;10200;49.232;9.222;2023-09-08T06:27:39;32.70;45.00
20081;DHT22;10200;49.232;9.222;2023-09-08T06:30:05;32.80;44.80
20081;DHT22;10200;49.232;9.222;2023-09-08T06:32:31;32.90;44.20
20081;DHT22;10200;49.232;9.222;2023-09-08T06:34:56;32.80;44.00
20081;DHT22;10200;49.232;9.222;2023-09-08T06:37:22;32.60;44.80
20081;DHT22;10200;49.232;9.222;2023-09-08T06:39:48;32.60;44.70
20081;DHT22;10200;49.232;9.222;2023-09-08T06:42:13;32.40;44.60
20081;DHT22;10200;49.232;9.222;2023-09-08T06:44:39;32.20;45.10
20081;DHT22;10200;49.232;9.222;2023-09-08T06:47:04;32.00;45.80
20081;DHT22;10200;49.232;9.222;2023-09-08T06:49:32;32.00;46.10
20081;DHT22;10200;49.232;9.222;2023-09-08T06:51:58;31.70;46.10
20081;DHT22;10200;49.232;9.222;2023-09-08T06:54:23;31.50;46.50
20081;DHT22;10200;49.232;9.222;2023-09-08T06:56:49;31.30;46.50
20081;DHT22;10200;49.232;9.222;2023-09-08T06:59:16;31.10;47.90
20081;DHT22;10200;49.232;9.222;2023-09-08T07:01:42;31.10;47.90
20081;DHT22;10200;49.232;9.222;2023-09-08T07:04:08;31.10;48.40
20081;DHT22;10200;49.232;9.222;2023-09-08T07:06:33;31.10;48.30
20081;DHT22;10200;49.232;9.222;2023-09-08T07:09:01;31.10;48.40
20081;DHT22;10200;49.232;9.222;2023-09-08T07:11:27;31.10;48.20
20081;DHT22;10200;49.232;9.222;2023-09-08T07:13:52;31.10;48.70
20081;DHT22;10200;49.232;9.222;2023-09-08T07:16:18;31.10;48.10
20081;DHT22;10200;49.232;9.222;2023-09-08T07:18:43;31.10;48.60
20081;DHT22;10200;49.232;9.222;2023-09-08T07:21:09;31.00;49.50
20081;DHT22;10200;49.232;9.222;2023-09-08T07:23:35;31.10;49.00
20081;DHT22;10200;49.232;9.222;2023-09-08T07:26:02;31.30;48.50
20081;DHT22;10200;49.232;9.222;2023-09-08T07:28:28;31.20;47.80
20081;DHT22;10200;49.232;9.222;2023-09-08T07:30:53;31.20;48.40
20081;DHT22;10200;49.232;9.222;2023-09-08T07:33:19;31.20;48.50
20081;DHT22;10200;49.232;9.222;2023-09-08T07:35:45;31.10;49.20
20081;DHT22;10200;49.232;9.222;2023-09-08T07:38:10;31.30;48.80
20081;DHT22;10200;49.232;9.222;2023-09-08T07:40:36;31.40;48.70
20081;DHT22;10200;49.232;9.222;2023-09-08T07:43:01;31.70;49.00
20081;DHT22;10200;49.232;9.222;2023-09-08T07:45:28;31.80;48.00
20081;DHT22;10200;49.232;9.222;2023-09-08T07:47:53;31.60;47.50
20081;DHT22;10200;49.232;9.222;2023-09-08T07:50:24;31.80;47.50
20081;DHT22;10200;49.232;9.222;2023-09-08T07:52:51;31.90;46.80
20081;DHT22;10200;49.232;9.222;2023-09-08T07:55:17;31.80;47.40
20081;DHT22;10200;49.232;9.222;2023-09-08T07:57:44;31.80;47.40
20081;DHT22;10200;49.232;9.222;2023-09-08T08:00:12;31.80;47.80
20081;DHT22;10200;49.232;9.222;2023-09-08T08:02:41;31.80;47.70
20081;DHT22;10200;49.232;9.222;2023-09-08T08:05:07;31.80;47.00
20081;DHT22;10200;49.232;9.222;2023-09-08T08:07:33;31.60;47.40
20081;DHT22;10200;49.232;9.222;2023-09-08T08:09:59;31.70;48.40
20081;DHT22;10200;49.232;9.222;2023-09-08T08:12:24;31.80;47.50
20081;DHT22;10200;49.232;9.222;2023-09-08T08:14:50;31.80;47.30
20081;DHT22;10200;49.232;9.222;2023-09-08T08:17:15;31.80;47.60
20081;DHT22;10200;49.232;9.222;2023-09-08T08:19:43;31.70;47.00
20081;DHT22;10200;49.232;9.222;2023-09-08T08:22:09;31.60;47.50
20081;DHT22;10200;49.232;9.222;2023-09-08T08:24:34;31.70;48.30
20081;DHT22;10200;49.232;9.222;2023-09-08T08:27:00;31.70;47.20
20081;DHT22;10200;49.232;9.222;2023-09-08T08:29:27;31.80;47.50
20081;DHT22;10200;49.232;9.222;2023-09-08T08:31:52;31.80;48.10
20081;DHT22;10200;49.232;9.222;2023-09-08T08:34:18;31.90;47.40
20081;DHT22;10200;49.232;9.222;2023-09-08T08:36:43;32.00;48.10
20081;DHT22;10200;49.232;9.222;2023-09-08T08:39:09;32.00;47.40
20081;DHT22;10200;49.232;9.222;2023-09-08T08:41:34;32.20;47.00
20081;DHT22;10200;49.232;9.222;2023-09-08T08:44:04;32.10;47.20
20081;DHT22;10200;49.232;9.222;2023-09-08T08:46:30;32.40;47.30
20081;DHT22;10200;49.232;9.222;2023-09-08T08:48:56;32.60;46.50
20081;DHT22;10200;49.232;9.222;2023-09-08T08:51:23;32.60;46.20
20081;DHT22;10200;49.232;9.222;2023-09-08T08:53:48;32.60;46.00
20081;DHT22;10200;49.232;9.222;2023-09-08T08:56:15;32.60;46.20
20081;DHT22;10200;49.232;9.222;2023-09-08T08:58:42;32.50;46.70
20081;DHT22;10200;49.232;9.222;2023-09-08T09:01:10;32.60;46.40
20081;DHT22;10200;49.232;9.222;2023-09-08T09:03:36;32.80;46.00
20081;DHT22;10200;49.232;9.222;2023-09-08T09:06:04;32.90;45.90
20081;DHT22;10200;49.232;9.222;2023-09-08T09:08:31;32.90;46.20
20081;DHT22;10200;49.232;9.222;2023-09-08T09:10:56;32.70;45.80
20081;DHT22;10200;49.232;9.222;2023-09-08T09:13:22;32.70;46.30
20081;DHT22;10200;49.232;9.222;2023-09-08T09:15:49;32.70;46.00
20081;DHT22;10200;49.232;9.222;2023-09-08T09:18:15;32.60;46.60
20081;DHT22;10200;49.232;9.222;2023-09-08T09:20:41;32.50;46.10
20081;DHT22;10200;49.232;9.222;2023-09-08T09:23:07;32.60;46.70
20081;DHT22;10200;49.232;9.222;2023-09-08T09:25:33;32.40;46.10
20081;DHT22;10200;49.232;9.222;2023-09-08T09:28:00;32.30;47.10
20081;DHT22;10200;49.232;9.222;2023-09-08T09:30:27;32.50;46.50
20081;DHT22;10200;49.232;9.222;2023-09-08T09:33:03;32.60;46.50
20081;DHT22;10200;49.232;9.222;2023-09-08T09:35:43;32.60;45.80
20081;DHT22;10200;49.232;9.222;2023-09-08T09:38:10;32.60;46.70
20081;DHT22;10200;49.232;9.222;2023-09-08T09:40:36;32.50;46.20
20081;DHT22;10200;49.232;9.222;2023-09-08T09:43:02;32.50;46.50
20081;DHT22;10200;49.232;9.222;2023-09-08T09:45:30;32.60;47.00
20081;DHT22;10200;49.232;9.222;2023-09-08T09:47:56;32.50;46.60
20081;DHT22;10200;49.232;9.222;2023-09-08T09:50:32;32.10;46.20
20081;DHT22;10200;49.232;9.222;2023-09-08T09:53:00;31.80;46.60
20081;DHT22;10200;49.232;9.222;2023-09-08T09:55:27;31.90;47.80
20081;DHT22;10200;49.232;9.222;2023-09-08T09:57:57;31.90;48.00
20081;DHT22;10200;49.232;9.222;2023-09-08T10:00:25;31.80;46.70
20081;DHT22;10200;49.232;9.222;2023-09-08T10:02:51;31.50;47.40
20081;DHT22;10200;49.232;9.222;2023-09-08T10:05:17;31.50;48.20
20081;DHT22;10200;49.232;9.222;2023-09-08T10:07:43;31.40;48.70
20081;DHT22;10200;49.232;9.222;2023-09-08T10:10:10;31.40;47.80
20081;DHT22;10200;49.232;9.222;2023-09-08T10:12:37;31.40;48.00
20081;DHT22;10200;49.232;9.222;2023-09-08T10:15:05;31.40;48.30
20081;DHT22;10200;49.232;9.222;2023-09-08T10:17:33;31.40;48.20
20081;DHT22;10200;49.232;9.222;2023-09-08T10:20:01;31.30;48.40
20081;DHT22;10200;49.232;9.222;2023-09-08T10:22:33;31.30;49.40
20081;DHT22;10200;49.232;9.222;2023-09-08T10:25:04;31.20;48.70
20081;DHT22;10200;49.232;9.222;2023-09-08T10:27:31;31.20;49.10
20081;DHT22;10200;49.232;9.222;2023-09-08T10:30:00;31.20;48.80
20081;DHT22;10200;49.232;9.222;2023-09-08T10:32:27;31.30;49.50
20081;DHT22;10200;49.232;9.222;2023-09-08T10:34:53;31.30;48.70
20081;DHT22;10200;49.232;9.222;2023-09-08T10:37:21;31.30;48.20
20081;DHT22;10200;49.232;9.222;2023-09-08T10:39:47;31.10;48.20
20081;DHT22;10200;49.232;9.222;2023-09-08T10:47:22;31.00;48.20
20081;DHT22;10200;49.232;9.222;2023-09-08T10:49:48;31.00;49.20
20081;DHT22;10200;49.232;9.222;2023-09-08T10:52:15;30.90;49.10
20081;DHT22;10200;49.232;9.222;2023-09-08T10:57:16;30.60;48.50
20081;DHT22;10200;49.232;9.222;2023-09-08T10:59:58;30.70;49.80
20081;DHT22;10200;49.232;9.222;2023-09-08T11:02:40;30.70;49.50
20081;DHT22;10200;49.232;9.222;2023-09-08T11:05:15;30.60;49.30
20081;DHT22;10200;49.232;9.222;2023-09-08T11:07:45;30.60;49.70
20081;DHT22;10200;49.232;9.222;2023-09-08T11:10:12;30.50;49.70
20081;DHT22;10200;49.232;9.222;2023-09-08T11:12:38;30.60;50.00
20081;DHT22;10200;49.232;9.222;2023-09-08T11:15:05;30.60;50.10
20081;DHT22;10200;49.232;9.222;2023-09-08T11:17:33;30.70;50.10
20081;DHT22;10200;49.232;9.222;2023-09-08T11:20:02;30.80;49.90
20081;DHT22;10200;49.232;9.222;2023-09-08T11:22:36;30.80;49.90
20081;DHT22;10200;49.232;9.222;2023-09-08T11:25:04;30.80;49.90
20081;DHT22;10200;49.232;9.222;2023-09-08T11:27:31;30.70;49.60
20081;DHT22;10200;49.232;9.222;2023-09-08T11:29:57;30.60;49.70
20081;DHT22;10200;49.232;9.222;2023-09-08T11:32:24;30.60;49.80
20081;DHT22;10200;49.232;9.222;2023-09-08T11:34:50;30.40;49.70
20081;DHT22;10200;49.232;9.222;2023-09-08T11:37:18;30.40;49.90
20081;DHT22;10200;49.232;9.222;2023-09-08T11:39:45;30.30;50.20
20081;DHT22;10200;49.232;9.222;2023-09-08T11:42:30;30.30;50.70
20081;DHT22;10200;49.232;9.222;2023-09-08T11:44:57;30.40;50.70
20081;DHT22;10200;49.232;9.222;2023-09-08T11:47:23;30.30;50.10
20081;DHT22;10200;49.232;9.222;2023-09-08T11:49:48;30.40;50.80
20081;DHT22;10200;49.232;9.222;2023-09-08T11:52:18;30.40;50.20
20081;DHT22;10200;49.232;9.222;2023-09-08T11:54:43;30.40;50.00
20081;DHT22;10200;49.232;9.222;2023-09-08T11:57:09;30.50;50.80
20081;DHT22;10200;49.232;9.222;2023-09-08T11:59:37;30.50;50.20
20081;DHT22;10200;49.232;9.222;2023-09-08T12:02:03;30.50;49.70
20081;DHT22;10200;49.232;9.222;2023-09-08T12:04:29;30.50;49.70
20081;DHT22;10200;49.232;9.222;2023-09-08T12:06:55;30.40;49.60
20081;DHT22;10200;49.232;9.222;2023-09-08T12:09:23;30.40;49.50
20081;DHT22;10200;49.232;9.222;2023-09-08T12:11:49;30.50;49.50
20081;DHT22;10200;49.232;9.222;2023-09-08T12:14:15;30.50;49.10
20081;DHT22;10200;49.232;9.222;2023-09-08T12:16:42;30.60;49.00
20081;DHT22;10200;49.232;9.222;2023-09-08T12:19:08;30.60;48.80
20081;DHT22;10200;49.232;9.222;2023-09-08T12:21:54;30.50;49.40
20081;DHT22;10200;49.232;9.222;2023-09-08T12:24:20;30.50;48.90
20081;DHT22;10200;49.232;9.222;2023-09-08T12:26:49;30.50;49.30
20081;DHT22;10200;49.232;9.222;2023-09-08T12:29:15;30.50;49.60
20081;DHT22;10200;49.232;9.222;2023-09-08T12:31:40;30.60;49.10
20081;DHT22;10200;49.232;9.222;2023-09-08T12:34:06;30.60;48.90
20081;DHT22;10200;49.232;9.222;2023-09-08T12:36:35;30.60;49.10
20081;DHT22;10200;49.232;9.222;2023-09-08T12:39:04;30.60;49.00
20081;DHT22;10200;49.232;9.222;2023-09-08T12:41:30;30.70;49.00
20081;DHT22;10200;49.232;9.222;2023-09-08T12:43:55;30.60;48.70
20081;DHT22;10200;49.232;9.222;2023-09-08T12:46:21;30.60;48.80
20081;DHT22;10200;49.232;9.222;2023-09-08T12:48:47;30.60;49.10
20081;DHT22;10200;49.232;9.222;2023-09-08T12:51:12;30.50;49.30
20081;DHT22;10200;49.232;9.222;2023-09-08T12:53:38;30.50;48.60
20081;DHT22;10200;49.232;9.222;2023-09-08T12:56:03;30.50;49.20
20081;DHT22;10200;49.232;9.222;2023-09-08T12:58:29;30.40;48.60
20081;DHT22;10200;49.232;9.222;2023-09-08T13:00:55;30.50;48.50
20081;DHT22;10200;49.232;9.222;2023-09-08T13:03:21;30.60;48.90
20081;DHT22;10200;49.232;9.222;2023-09-08T13:05:47;30.70;48.90
20081;DHT22;10200;49.232;9.222;2023-09-08T13:08:12;30.70;48.80
20081;DHT22;10200;49.232;9.222;2023-09-08T13:10:40;30.70;48.40
20081;DHT22;10200;49.232;9.222;2023-09-08T13:13:06;30.70;48.00
20081;DHT22;10200;49.232;9.222;2023-09-08T13:15:32;30.70;48.60
20081;DHT22;10200;49.232;9.222;2023-09-08T13:17:57;30.80;48.70
20081;DHT22;10200;49.232;9.222;2023-09-08T13:20:23;30.80;47.60
20081;DHT22;10200;49.232;9.222;2023-09-08T13:22:48;30.80;48.80
20081;DHT22;10200;49.232;9.222;2023-09-08T13:25:14;30.80;47.70
20081;DHT22;10200;49.232;9.222;2023-09-08T13:27:43;30.80;47.70
20081;DHT22;10200;49.232;9.222;2023-09-08T13:30:10;30.90;48.20
20081;DHT22;10200;49.232;9.222;2023-09-08T13:32:36;30.80;47.70
20081;DHT22;10200;49.232;9.222;2023-09-08T13:35:01;30.70;47.60
20081;DHT22;10200;49.232;9.222;2023-09-08T13:37:28;30.70;47.90
20081;DHT22;10200;49.232;9.222;2023-09-08T13:39:54;30.70;48.40
20081;DHT22;10200;49.232;9.222;2023-09-08T13:42:20;30.70;48.00
20081;DHT22;10200;49.232;9.222;2023-09-08T13:44:45;30.80;48.70
20081;DHT22;10200;49.232;9.222;2023-09-08T13:47:11;30.70;47.90
20081;DHT22;10200;49.232;9.222;2023-09-08T13:49:36;30.80;48.50
20081;DHT22;10200;49.232;9.222;2023-09-08T13:52:02;30.80;48.90
20081;DHT22;10200;49.232;9.222;2023-09-08T13:54:28;30.90;49.00
20081;DHT22;10200;49.232;9.222;2023-09-08T13:57:01;30.90;49.80
20081;DHT22;10200;49.232;9.222;2023-09-08T13:59:28;30.90;48.80
20081;DHT22;10200;49.232;9.222;2023-09-08T14:01:54;30.80;48.60
20081;DHT22;10200;49.232;9.222;2023-09-08T14:04:20;30.90;49.40
20081;DHT22;10200;49.232;9.222;2023-09-08T14:06:46;30.90;49.10
20081;DHT22;10200;49.232;9.222;2023-09-08T14:09:12;31.00;48.60
20081;DHT22;10200;49.232;9.222;2023-09-08T14:11:38;31.00;48.30
20081;DHT22;10200;49.232;9.222;2023-09-08T14:14:03;31.10;48.70
20081;DHT22;10200;49.232;9.222;2023-09-08T14:16:29;31.10;49.30
20081;DHT22;10200;49.232;9.222;2023-09-08T14:18:55;31.20;49.80
20081;DHT22;10200;49.232;9.222;2023-09-08T14:21:21;31.30;49.90
20081;DHT22;10200;49.232;9.222;2023-09-08T14:23:46;31.20;48.50
20081;DHT22;10200;49.232;9.222;2023-09-08T14:26:12;31.10;48.40
20081;DHT22;10200;49.232;9.222;2023-09-08T14:28:38;31.10;48.30
20081;DHT22;10200;49.232;9.222;2023-09-08T14:31:04;31.20;48.60
20081;DHT22;10200;49.232;9.222;2023-09-08T14:33:30;31.20;48.50
20081;DHT22;10200;49.232;9.222;2023-09-08T14:35:55;31.30;48.50
20081;DHT22;10200;49.232;9.222;2023-09-08T14:38:22;31.30;48.60
20081;DHT22;10200;49.232;9.222;2023-09-08T14:41:02;31.30;49.30
20081;DHT22;10200;49.232;9.222;2023-09-08T14:43:28;31.30;48.60
20081;DHT22;10200;49.232;9.222;2023-09-08T14:45:55;31.30;48.70
20081;DHT22;10200;49.232;9.222;2023-09-08T14:48:22;31.30;49.00
20081;DHT22;10200;49.232;9.222;2023-09-08T14:50:48;31.30;48.80
20081;DHT22;10200;49.232;9.222;2023-09-08T14:53:14;31.30;48.90
20081;DHT22;10200;49.232;9.222;2023-09-08T14:55:39;31.30;49.00
20081;DHT22;10200;49.232;9.222;2023-09-08T14:58:05;31.20;49.00
20081;DHT22;10200;49.232;9.222;2023-09-08T15:00:31;31.20;50.10
20081;DHT22;10200;49.232;9.222;2023-09-08T15:02:57;31.20;49.40
20081;DHT22;10200;49.232;9.222;2023-09-08T15:05:23;31.10;49.50
20081;DHT22;10200;49.232;9.222;2023-09-08T15:07:48;31.10;49.80
20081;DHT22;10200;49.232;9.222;2023-09-08T15:10:15;31.10;50.50
20081;DHT22;10200;49.232;9.222;2023-09-08T15:12:40;31.00;50.10
20081;DHT22;10200;49.232;9.222;2023-09-08T15:15:07;31.00;50.00
20081;DHT22;10200;49.232;9.222;2023-09-08T15:17:33;31.00;50.10
20081;DHT22;10200;49.232;9.222;2023-09-08T15:19:58;30.90;50.10
20081;DHT22;10200;49.232;9.222;2023-09-08T15:22:25;30.90;50.10
20081;DHT22;10200;49.232;9.222;2023-09-08T15:24:51;30.90;50.00
20081;DHT22;10200;49.232;9.222;2023-09-08T15:27:16;31.00;50.60
20081;DHT22;10200;49.232;9.222;2023-09-08T15:29:42;31.00;51.00
20081;DHT22;10200;49.232;9.222;2023-09-08T15:32:08;30.90;50.70
20081;DHT22;10200;49.232;9.222;2023-09-08T15:34:34;31.00;50.80
20081;DHT22;10200;49.232;9.222;2023-09-08T15:37:00;31.00;51.50
20081;DHT22;10200;49.232;9.222;2023-09-08T15:39:25;31.00;51.40